createdAt,value
2018-09-05T00:00:26.220Z,21.80
2018-09-05T00:02:30.141Z,21.17
2018-09-05T00:04:34.012Z,21.77
2018-09-05T00:06:38.314Z,21.53
2018-09-05T00:08:48.772Z,22.67
2018-09-05T00:10:52.626Z,21.20
2018-09-05T00:15:27.622Z,22.57
2018-09-05T00:17:31.586Z,22.17
2018-09-05T00:19:35.965Z,21.70
2018-09-05T00:21:39.874Z,22.70
2018-09-05T00:23:43.801Z,23.83
2018-09-05T00:25:48.116Z,21.90
2018-09-05T00:27:52.071Z,21.43
2018-09-05T00:29:56.036Z,21.67
2018-09-05T00:32:01.195Z,21.27
2018-09-05T00:34:05.106Z,20.23
2018-09-05T00:36:10.117Z,19.80
2018-09-05T00:38:14.432Z,18.90
2018-09-05T00:40:18.365Z,19.77
2018-09-05T00:42:22.260Z,19.57
2018-09-05T00:44:26.118Z,19.27
2018-09-05T00:46:30.081Z,19.73
2018-09-05T00:48:33.956Z,20.03
2018-09-05T00:50:39.185Z,20.10
2018-09-05T00:52:45.441Z,19.50
2018-09-05T00:54:49.494Z,20.07
2018-09-05T00:56:54.442Z,18.63
2018-09-05T00:58:59.059Z,17.83
2018-09-05T01:01:03.938Z,17.37
2018-09-05T01:03:11.842Z,16.43
2018-09-05T01:05:16.524Z,16.67
2018-09-05T01:07:26.043Z,17.60
2018-09-05T01:09:30.698Z,16.53
2018-09-05T01:11:34.674Z,17.60
2018-09-05T01:13:39.810Z,17.03
2018-09-05T01:15:44.010Z,17.00
2018-09-05T01:17:47.944Z,17.73
2018-09-05T01:19:53.269Z,16.30
2018-09-05T01:21:58.897Z,16.43
2018-09-05T01:24:03.506Z,16.30
2018-09-05T01:26:09.648Z,15.43
2018-09-05T01:28:15.765Z,15.27
2018-09-05T01:30:22.633Z,16.60
2018-09-05T01:32:29.974Z,15.63
2018-09-05T01:34:35.681Z,16.23
2018-09-05T01:36:39.601Z,15.07
2018-09-05T01:38:43.988Z,15.37
2018-09-05T01:40:53.282Z,16.10
2018-09-05T01:42:57.499Z,16.37
2018-09-05T01:45:02.076Z,16.07
2018-09-05T01:47:11.122Z,16.33
2018-09-05T01:49:17.385Z,16.00
2018-09-05T01:51:22.736Z,17.60
2018-09-05T01:53:27.340Z,16.47
2018-09-05T01:55:32.900Z,17.13
2018-09-05T01:57:38.497Z,16.37
2018-09-05T01:59:44.895Z,15.50
2018-09-05T02:01:51.052Z,15.97
2018-09-05T02:03:59.175Z,16.17
2018-09-05T02:06:04.716Z,16.27
2018-09-05T02:08:09.191Z,16.77
2018-09-05T02:10:14.031Z,16.00
2018-09-05T02:12:19.444Z,16.60
2018-09-05T02:14:24.835Z,16.67
2018-09-05T02:16:28.722Z,17.97
2018-09-05T02:18:33.057Z,19.53
2018-09-05T02:20:38.142Z,20.20
2018-09-05T02:22:43.918Z,21.50
2018-09-05T02:24:48.350Z,21.57
2018-09-05T02:26:54.146Z,21.90
2018-09-05T02:28:58.050Z,22.70
2018-09-05T02:31:04.246Z,22.60
2018-09-05T02:33:08.860Z,21.63
2018-09-05T02:35:14.452Z,22.27
2018-09-05T02:37:22.175Z,25.00
2018-09-05T02:39:27.922Z,21.63
2018-09-05T02:41:32.201Z,21.23
2018-09-05T02:43:41.760Z,22.93
2018-09-05T02:45:46.874Z,22.33
2018-09-05T02:47:52.497Z,20.17
2018-09-05T02:49:57.162Z,21.93
2018-09-05T02:52:01.996Z,21.77
2018-09-05T02:54:05.906Z,21.77
2018-09-05T02:56:09.821Z,20.73
2018-09-05T02:58:13.832Z,20.57
2018-09-05T03:00:17.810Z,20.00
2018-09-05T03:02:22.104Z,20.33
2018-09-05T03:04:26.110Z,19.97
2018-09-05T03:06:30.027Z,19.57
2018-09-05T03:08:34.419Z,20.40
2018-09-05T03:10:38.405Z,19.60
2018-09-05T03:12:42.282Z,19.53
2018-09-05T03:14:46.185Z,19.30
2018-09-05T03:16:50.122Z,19.47
2018-09-05T03:18:54.017Z,19.00
2018-09-05T03:20:58.316Z,20.27
2018-09-05T03:23:04.070Z,19.53
2018-09-05T03:25:09.069Z,18.77
2018-09-05T03:27:13.372Z,19.87
2018-09-05T03:29:17.369Z,21.40
2018-09-05T03:31:22.523Z,19.50
2018-09-05T03:33:26.821Z,20.43
2018-09-05T03:35:30.814Z,18.80
2018-09-05T03:37:34.950Z,19.77
2018-09-05T03:39:39.133Z,19.50
2018-09-05T03:41:42.998Z,19.47
2018-09-05T03:43:46.880Z,19.70
2018-09-05T03:45:51.344Z,18.13
2018-09-05T03:47:55.419Z,19.07
2018-09-05T03:50:01.026Z,20.70
2018-09-05T03:52:07.728Z,18.97
2018-09-05T03:54:12.947Z,18.73
2018-09-05T03:56:19.800Z,19.57
2018-09-05T03:58:24.259Z,21.53
2018-09-05T04:00:33.574Z,20.77
2018-09-05T04:02:44.239Z,21.50
2018-09-05T04:04:51.735Z,21.83
2018-09-05T04:06:56.839Z,22.63
2018-09-05T04:09:00.906Z,21.60
2018-09-05T04:11:05.927Z,21.53
2018-09-05T04:13:10.012Z,21.67
2018-09-05T04:15:17.593Z,22.17
2018-09-05T04:17:22.516Z,22.00
2018-09-05T04:19:27.486Z,21.30
2018-09-05T04:21:33.059Z,20.67
2018-09-05T04:23:43.180Z,22.97
2018-09-05T04:25:47.184Z,21.43
2018-09-05T04:27:52.506Z,21.70
2018-09-05T04:29:57.300Z,21.00
2018-09-05T04:32:05.020Z,21.17
2018-09-05T04:34:10.820Z,20.47
2018-09-05T04:36:16.615Z,20.33
2018-09-05T04:38:24.593Z,20.23
2018-09-05T04:40:29.304Z,19.73
2018-09-05T04:42:39.379Z,19.17
2018-09-05T04:44:48.636Z,19.50
2018-09-05T04:46:55.450Z,19.33
2018-09-05T04:49:05.702Z,20.00
2018-09-05T04:51:09.989Z,20.13
2018-09-05T04:53:18.509Z,20.10
2018-09-05T04:55:32.804Z,19.70
2018-09-05T04:57:39.717Z,21.37
2018-09-05T04:59:47.565Z,20.80
2018-09-05T05:01:59.759Z,21.53
2018-09-05T05:04:19.443Z,22.27
2018-09-05T05:06:25.064Z,21.97
2018-09-05T05:08:34.218Z,22.53
2018-09-05T05:10:39.308Z,24.10
2018-09-05T05:12:45.883Z,24.23
2018-09-05T05:14:50.264Z,23.37
2018-09-05T05:16:58.024Z,24.37
2018-09-05T05:19:05.869Z,26.23
2018-09-05T05:21:10.873Z,25.37
2018-09-05T05:23:15.104Z,24.70
2018-09-05T05:25:20.224Z,23.87
2018-09-05T05:27:26.192Z,25.07
2018-09-05T05:29:42.011Z,24.93
2018-09-05T05:32:33.897Z,25.57
2018-09-05T05:37:59.289Z,26.90
2018-09-05T05:40:43.258Z,26.97
2018-09-05T05:42:47.287Z,26.50
2018-09-05T05:44:51.234Z,26.37
2018-09-05T05:46:59.428Z,27.87
2018-09-05T05:49:06.114Z,28.10
2018-09-05T05:51:10.200Z,27.17
2018-09-05T05:53:14.701Z,27.43
2018-09-05T05:55:18.806Z,28.67
2018-09-05T05:57:23.313Z,27.80
2018-09-05T05:59:27.529Z,27.20
2018-09-05T06:01:40.738Z,26.37
2018-09-05T06:03:45.902Z,27.03
2018-09-05T06:05:50.282Z,27.30
2018-09-05T06:07:54.805Z,27.57
2018-09-05T06:09:58.811Z,26.97
2018-09-05T06:12:04.995Z,26.47
2018-09-05T06:14:14.565Z,26.07
2018-09-05T06:16:23.421Z,26.17
2018-09-05T06:18:28.137Z,25.90
2018-09-05T06:20:33.026Z,25.53
2018-09-05T06:22:37.222Z,26.77
2018-09-05T06:24:41.670Z,25.70
2018-09-05T06:26:45.622Z,26.27
2018-09-05T06:28:49.713Z,27.33
2018-09-05T06:30:55.909Z,25.40
2018-09-05T06:33:00.687Z,26.17
2018-09-05T06:35:07.418Z,25.60
2018-09-05T06:37:18.359Z,25.37
2018-09-05T06:39:22.369Z,26.60
2018-09-05T06:41:26.339Z,25.80
2018-09-05T06:43:31.712Z,25.93
2018-09-05T06:45:36.187Z,24.47
2018-09-05T06:47:41.333Z,25.07
2018-09-05T06:49:46.877Z,25.87
2018-09-05T06:51:51.738Z,23.53
2018-09-05T06:53:55.672Z,23.80
2018-09-05T06:56:06.175Z,22.53
2018-09-05T06:58:18.791Z,22.87
2018-09-05T07:00:27.368Z,23.73
2018-09-05T07:02:34.374Z,22.77
2018-09-05T07:04:48.557Z,23.70
2018-09-05T07:06:52.458Z,21.77
2018-09-05T07:08:57.418Z,22.63
2018-09-05T07:11:01.370Z,23.43
2018-09-05T07:13:08.085Z,23.63
2018-09-05T07:15:14.253Z,22.43
2018-09-05T07:17:19.742Z,23.60
2018-09-05T07:19:24.411Z,24.03
2018-09-05T07:21:29.319Z,23.63
2018-09-05T07:23:33.297Z,22.97
2018-09-05T07:25:37.300Z,23.77
2018-09-05T07:27:42.602Z,24.47
2018-09-05T07:29:46.497Z,23.77
2018-09-05T07:31:51.254Z,25.47
2018-09-05T07:33:56.295Z,23.80
2018-09-05T07:36:00.319Z,22.27
2018-09-05T07:38:04.963Z,24.80
2018-09-05T07:40:12.968Z,24.20
2018-09-05T07:42:17.142Z,23.00
2018-09-05T07:44:28.009Z,23.30
2018-09-05T07:46:34.281Z,23.63
2018-09-05T07:48:39.253Z,22.10
2018-09-05T07:50:43.215Z,22.73
2018-09-05T07:52:47.555Z,24.07
2018-09-05T07:54:54.011Z,23.63
2018-09-05T07:56:58.984Z,22.93
2018-09-05T07:59:16.830Z,21.83
2018-09-05T08:01:22.316Z,21.97
2018-09-05T08:03:33.376Z,22.07
2018-09-05T08:05:38.661Z,21.90
2018-09-05T08:07:42.873Z,22.87
2018-09-05T08:09:46.891Z,22.13
2018-09-05T08:11:51.520Z,22.40
2018-09-05T08:13:55.618Z,21.40
2018-09-05T08:15:59.581Z,21.63
2018-09-05T08:18:05.347Z,19.60
2018-09-05T08:20:09.416Z,22.17
2018-09-05T08:22:18.765Z,21.27
2018-09-05T08:24:23.647Z,20.50
2018-09-05T08:26:30.249Z,19.47
2018-09-05T08:28:35.293Z,21.47
2018-09-05T08:30:41.701Z,20.07
2018-09-05T08:32:45.931Z,20.67
2018-09-05T08:34:50.180Z,20.20
2018-09-05T08:36:57.072Z,19.93
2018-09-05T08:39:00.864Z,21.87
2018-09-05T08:41:09.745Z,19.63
2018-09-05T08:43:14.088Z,19.60
2018-09-05T08:45:18.631Z,18.67
2018-09-05T08:47:22.729Z,20.07
2018-09-05T08:49:28.410Z,19.60
2018-09-05T08:51:32.381Z,20.67
2018-09-05T08:53:36.429Z,20.20
2018-09-05T08:55:41.307Z,20.02
2018-09-05T08:57:45.245Z,21.30
2018-09-05T08:59:50.361Z,20.77
2018-09-05T09:01:54.883Z,19.83
2018-09-05T09:03:58.798Z,20.90
2018-09-05T09:06:03.301Z,21.37
2018-09-05T09:08:08.410Z,21.27
2018-09-05T09:10:12.538Z,20.87
2018-09-05T09:12:18.365Z,20.53
2018-09-05T09:14:25.009Z,20.13
2018-09-05T09:16:29.022Z,19.77
2018-09-05T09:18:33.226Z,18.70
2018-09-05T09:20:37.775Z,19.07
2018-09-05T09:22:41.699Z,20.63
2018-09-05T09:24:45.713Z,19.62
2018-09-05T09:26:49.899Z,19.62
2018-09-05T09:28:53.951Z,19.32
2018-09-05T09:30:57.869Z,20.77
2018-09-05T09:33:02.803Z,21.00
2018-09-05T09:35:06.814Z,18.83
2018-09-05T09:37:10.794Z,22.87
2018-09-05T09:39:17.221Z,19.90
2018-09-05T09:41:21.161Z,20.40
2018-09-05T09:43:25.053Z,19.23
2018-09-05T09:45:29.218Z,19.25
2018-09-05T09:47:33.310Z,19.12
2018-09-05T09:49:37.265Z,19.37
2018-09-05T09:51:41.395Z,20.43
2018-09-05T09:53:45.400Z,18.65
2018-09-05T09:55:50.306Z,17.57
2018-09-05T09:57:55.343Z,17.77
2018-09-05T09:59:59.901Z,17.82
2018-09-05T10:02:09.100Z,18.55
2018-09-05T10:04:19.299Z,18.25
2018-09-05T10:06:28.970Z,17.30
2018-09-05T10:08:39.122Z,19.15
2018-09-05T10:10:48.858Z,17.05
2018-09-05T10:12:59.607Z,17.73
2018-09-05T10:15:09.308Z,19.05
2018-09-05T10:17:22.752Z,17.40
2018-09-05T10:19:26.840Z,17.32
2018-09-05T10:21:30.803Z,17.73
2018-09-05T10:23:35.228Z,16.55
2018-09-05T10:25:39.235Z,17.37
2018-09-05T10:27:43.917Z,17.27
2018-09-05T10:29:48.291Z,17.65
2018-09-05T10:31:53.099Z,18.00
2018-09-05T10:33:57.755Z,16.80
2018-09-05T10:36:03.396Z,17.37
2018-09-05T10:38:09.568Z,15.83
2018-09-05T10:40:13.969Z,16.32
2018-09-05T10:42:18.874Z,16.50
2018-09-05T10:44:24.351Z,16.50
2018-09-05T10:46:28.279Z,15.45
2018-09-05T10:48:35.653Z,16.62
2018-09-05T10:50:39.662Z,16.62
2018-09-05T10:52:43.602Z,16.00
2018-09-05T10:54:47.919Z,16.35
2018-09-05T10:56:51.948Z,16.55
2018-09-05T10:58:57.606Z,16.77
2018-09-05T11:01:02.312Z,15.98
2018-09-05T11:03:07.028Z,15.98
2018-09-05T11:05:12.047Z,15.53
2018-09-05T11:07:16.817Z,15.50
2018-09-05T11:09:21.053Z,14.28
2018-09-05T11:11:26.272Z,12.95
2018-09-05T11:13:30.808Z,14.35
2018-09-05T11:15:34.938Z,15.35
2018-09-05T11:17:40.592Z,13.68
2018-09-05T11:19:45.884Z,13.08
2018-09-05T11:21:50.244Z,14.05
2018-09-05T11:23:54.462Z,14.68
2018-09-05T11:25:59.369Z,13.28
2018-09-05T11:28:04.196Z,15.72
2018-09-05T11:30:12.526Z,14.93
2018-09-05T11:32:16.569Z,14.40
2018-09-05T11:34:20.565Z,14.03
2018-09-05T11:36:27.858Z,14.80
2018-09-05T11:38:32.233Z,14.00
2018-09-05T11:40:36.434Z,12.88
2018-09-05T11:42:40.682Z,14.33
2018-09-05T11:44:45.770Z,12.70
2018-09-05T11:46:49.861Z,12.95
2018-09-05T11:48:53.784Z,11.88
2018-09-05T11:51:00.375Z,13.60
2018-09-05T11:53:05.284Z,12.95
2018-09-05T11:55:10.803Z,13.68
2018-09-05T11:57:15.011Z,12.93
2018-09-05T11:59:20.925Z,11.73
2018-09-05T12:01:39.189Z,11.12
2018-09-05T12:03:45.394Z,10.95
2018-09-05T12:05:50.235Z,11.08
2018-09-05T12:07:54.412Z,11.43
2018-09-05T12:09:59.697Z,11.28
2018-09-05T12:12:03.749Z,11.45
2018-09-05T12:14:08.403Z,11.68
2018-09-05T12:16:13.810Z,11.48
2018-09-05T12:18:17.886Z,12.30
2018-09-05T12:20:24.315Z,11.50
2018-09-05T12:22:28.659Z,10.72
2018-09-05T12:24:32.587Z,11.38
2018-09-05T12:26:37.374Z,11.65
2018-09-05T12:28:43.761Z,10.58
2018-09-05T12:30:49.825Z,9.53
2018-09-05T12:32:54.984Z,9.78
2018-09-05T12:34:59.301Z,10.13
2018-09-05T12:37:03.526Z,10.03
2018-09-05T12:39:10.315Z,9.98
2018-09-05T12:41:15.625Z,11.00
2018-09-05T12:43:20.513Z,11.15
2018-09-05T12:45:24.591Z,10.40
2018-09-05T12:47:36.225Z,10.38
2018-09-05T12:49:41.108Z,10.38
2018-09-05T12:51:48.087Z,10.13
2018-09-05T12:53:52.526Z,10.70
2018-09-05T12:55:57.424Z,9.90
2018-09-05T12:58:02.712Z,9.20
2018-09-05T13:00:06.930Z,9.55
2018-09-05T13:02:10.904Z,9.30
2018-09-05T13:04:17.405Z,9.33
2018-09-05T13:06:21.864Z,10.40
2018-09-05T13:08:27.230Z,9.40
2018-09-05T13:10:32.133Z,10.03
2018-09-05T13:12:36.479Z,9.88
2018-09-05T13:14:41.440Z,10.18
2018-09-05T13:16:46.521Z,10.05
2018-09-05T13:18:50.838Z,9.60
2018-09-05T13:20:54.913Z,9.43
2018-09-05T13:22:59.887Z,10.08
2018-09-05T13:25:05.031Z,10.00
2018-09-05T13:27:10.094Z,9.50
2018-09-05T13:29:15.348Z,9.10
2018-09-05T13:31:21.225Z,9.88
2018-09-05T13:33:27.219Z,9.50
2018-09-05T13:35:32.967Z,9.93
2018-09-05T13:37:38.356Z,9.98
2018-09-05T13:39:42.422Z,10.58
2018-09-05T13:41:46.492Z,9.10
2018-09-05T13:43:50.512Z,10.58
2018-09-05T13:50:33.160Z,10.60
2018-09-05T13:52:38.825Z,10.98
2018-09-05T13:54:43.531Z,10.80
2018-09-05T13:56:48.039Z,10.45
2018-09-05T13:58:55.075Z,10.58
2018-09-05T14:01:00.238Z,10.28
2018-09-05T14:03:06.228Z,9.75
2018-09-05T14:05:10.129Z,10.38
2018-09-05T14:07:14.589Z,10.13
2018-09-05T14:09:18.541Z,10.45
2018-09-05T14:11:23.472Z,10.53
2018-09-05T14:13:27.870Z,11.03
2018-09-05T14:15:32.325Z,9.95
2018-09-05T14:17:38.392Z,10.98
2018-09-05T14:19:42.776Z,10.70
2018-09-05T14:21:49.620Z,9.75
2018-09-05T14:23:55.687Z,10.38
2018-09-05T14:26:02.245Z,10.03
2018-09-05T14:28:08.808Z,10.48
2018-09-05T14:30:16.052Z,10.68
2018-09-05T14:32:20.278Z,10.15
2018-09-05T14:34:26.252Z,10.35
2018-09-05T14:36:35.176Z,9.98
2018-09-05T14:38:39.321Z,10.10
2018-09-05T14:40:44.468Z,10.10
2018-09-05T14:42:48.392Z,10.48
2018-09-05T14:44:54.660Z,9.35
2018-09-05T14:47:00.624Z,9.73
2018-09-05T14:49:07.552Z,9.75
2018-09-05T14:51:11.736Z,10.82
2018-09-05T14:53:17.705Z,10.00
2018-09-05T14:55:27.425Z,10.55
2018-09-05T14:57:32.884Z,10.55
2018-09-05T14:59:40.675Z,10.25
2018-09-05T15:01:45.302Z,10.00
2018-09-05T15:03:49.594Z,9.83
2018-09-05T15:05:56.110Z,10.23
2018-09-05T15:08:01.429Z,10.15
2018-09-05T15:10:09.196Z,9.60
2018-09-05T15:12:13.912Z,9.53
2018-09-05T15:14:21.328Z,9.98
2018-09-05T15:16:32.102Z,10.05
2018-09-05T15:18:36.621Z,10.38
2018-09-05T15:20:41.364Z,9.60
2018-09-05T15:22:48.596Z,9.60
2018-09-05T15:24:56.061Z,9.88
2018-09-05T15:27:01.200Z,9.60
2018-09-05T15:29:10.227Z,9.53
2018-09-05T15:31:14.795Z,9.75
2018-09-05T15:33:18.706Z,8.85
2018-09-05T15:35:24.286Z,10.00
2018-09-05T15:37:28.260Z,8.88
2018-09-05T15:39:33.717Z,9.75
2018-09-05T15:41:41.420Z,9.40
2018-09-05T15:43:48.083Z,9.33
2018-09-05T15:45:56.553Z,9.88
2018-09-05T15:48:04.067Z,9.75
2018-09-05T15:50:10.118Z,9.90
2018-09-05T15:52:14.992Z,9.70
2018-09-05T15:54:20.936Z,10.38
2018-09-05T15:56:39.015Z,9.48
2018-09-05T15:58:46.405Z,9.10
2018-09-05T16:00:51.860Z,9.75
2018-09-05T16:02:56.787Z,9.73
2018-09-05T16:05:03.334Z,9.55
2018-09-05T16:07:10.176Z,8.93
2018-09-05T16:09:16.258Z,9.33
2018-09-05T16:11:22.799Z,9.85
2018-09-05T16:13:26.739Z,9.35
2018-09-05T16:15:32.654Z,9.28
2018-09-05T16:17:38.801Z,9.28
2018-09-05T16:19:45.177Z,9.75
2018-09-05T16:21:49.478Z,8.63
2018-09-05T16:23:54.717Z,9.08
2018-09-05T16:25:58.621Z,8.83
2018-09-05T16:28:02.569Z,8.58
2018-09-05T16:30:08.075Z,8.90
2018-09-05T16:32:12.117Z,9.53
2018-09-05T16:34:16.776Z,8.98
2018-09-05T16:36:24.079Z,9.13
2018-09-05T16:38:28.464Z,9.00
2018-09-05T16:40:32.331Z,8.65
2018-09-05T16:42:37.329Z,8.90
2018-09-05T16:47:40.985Z,9.30
2018-09-05T16:49:46.156Z,8.95
2018-09-05T16:51:53.853Z,8.85
2018-09-05T16:54:03.267Z,8.70
2018-09-05T16:56:10.468Z,9.08
2018-09-05T16:58:19.556Z,8.98
2018-09-05T17:00:27.348Z,9.20
2018-09-05T17:02:34.087Z,8.73
2018-09-05T17:04:39.217Z,8.63
2018-09-05T17:06:46.428Z,8.75
2018-09-05T17:08:51.334Z,9.60
2018-09-05T17:11:00.429Z,9.15
2018-09-05T17:13:04.589Z,9.50
2018-09-05T17:15:13.308Z,9.25
2018-09-05T17:17:17.245Z,9.10
2018-09-05T17:19:23.966Z,9.15
2018-09-05T17:21:30.169Z,9.40
2018-09-05T17:23:35.515Z,8.68
2018-09-05T17:25:55.661Z,8.93
2018-09-05T17:28:01.383Z,8.73
2018-09-05T17:30:09.576Z,9.10
2018-09-05T17:32:16.395Z,8.73
2018-09-05T17:34:20.327Z,8.75
2018-09-05T17:36:27.796Z,9.30
2018-09-05T17:38:37.597Z,8.70
2018-09-05T17:40:46.756Z,8.63
2018-09-05T17:42:51.564Z,8.80
2018-09-05T17:45:01.665Z,9.37
2018-09-05T17:47:09.595Z,8.60
2018-09-05T17:49:15.757Z,9.20
2018-09-05T17:51:22.018Z,8.83
2018-09-05T17:53:29.265Z,9.50
2018-09-05T17:55:36.647Z,9.17
2018-09-05T17:57:42.742Z,9.67
2018-09-05T17:59:48.696Z,9.98
2018-09-05T18:01:53.473Z,8.73
2018-09-05T18:04:02.069Z,8.95
2018-09-05T18:06:10.198Z,9.20
2018-09-05T18:08:17.361Z,9.33
2018-09-05T18:10:23.611Z,9.25
2018-09-05T18:12:31.190Z,9.77
2018-09-05T18:14:39.094Z,9.93
2018-09-05T18:16:47.815Z,10.97
2018-09-05T18:18:53.825Z,10.53
2018-09-05T18:20:58.294Z,9.97
2018-09-05T18:23:04.470Z,9.70
2018-09-05T18:25:10.331Z,10.73
2018-09-05T18:27:19.652Z,11.10
2018-09-05T18:29:24.420Z,10.43
2018-09-05T18:31:30.804Z,10.60
2018-09-05T18:33:37.380Z,10.50
2018-09-05T18:35:42.127Z,10.27
2018-09-05T18:37:50.850Z,10.57
2018-09-05T18:40:00.778Z,10.33
2018-09-05T18:42:06.178Z,11.20
2018-09-05T18:44:13.476Z,11.17
2018-09-05T18:46:19.298Z,11.27
2018-09-05T18:48:24.118Z,10.40
2018-09-05T18:50:29.762Z,10.87
2018-09-05T18:52:37.391Z,10.27
2018-09-05T18:54:48.060Z,11.53
2018-09-05T18:57:02.227Z,11.00
2018-09-05T18:59:11.275Z,11.77
2018-09-05T19:01:16.239Z,11.73
2018-09-05T19:03:33.176Z,10.43
2018-09-05T19:05:53.469Z,10.23
2018-09-05T19:08:03.960Z,10.30
2018-09-05T19:10:12.414Z,9.70
2018-09-05T19:12:20.339Z,11.10
2018-09-05T19:14:24.820Z,10.93
2018-09-05T19:16:34.234Z,11.73
2018-09-05T19:18:41.655Z,10.30
2018-09-05T19:20:51.316Z,11.00
2018-09-05T19:22:59.172Z,10.73
2018-09-05T19:25:08.874Z,10.67
2018-09-05T19:27:18.441Z,10.83
2018-09-05T19:29:30.260Z,10.10
2018-09-05T19:31:40.642Z,10.93
2018-09-05T19:33:52.243Z,10.50
2018-09-05T19:35:57.531Z,10.37
2018-09-05T19:38:01.908Z,11.60
2018-09-05T19:40:10.044Z,10.53
2018-09-05T19:42:18.471Z,10.23
2018-09-05T19:44:28.607Z,9.97
2018-09-05T19:47:01.065Z,10.47
2018-09-05T19:49:15.554Z,10.40
2018-09-05T19:51:53.554Z,10.30
2018-09-05T19:54:03.266Z,10.43
2018-09-05T19:56:28.479Z,9.93
2018-09-05T19:58:42.647Z,9.83
2018-09-05T20:01:14.771Z,9.83
2018-09-05T20:03:43.751Z,10.27
2018-09-05T20:06:00.700Z,8.97
2018-09-05T20:08:17.952Z,10.47
2018-09-05T20:10:49.695Z,9.47
2018-09-05T20:13:03.631Z,9.33
2018-09-05T20:15:42.198Z,8.87
2018-09-05T20:17:54.639Z,8.70
2018-09-05T20:20:12.223Z,9.67
2018-09-05T20:22:20.969Z,8.90
2018-09-05T20:24:28.496Z,9.47
2018-09-05T20:26:34.685Z,9.47
2018-09-05T20:28:45.648Z,8.93
2018-09-05T20:30:55.747Z,9.40
2018-09-05T20:33:07.269Z,9.57
2018-09-05T20:35:20.652Z,10.13
2018-09-05T20:37:27.742Z,9.50
2018-09-05T20:39:33.877Z,9.93
2018-09-05T20:41:44.500Z,9.53
2018-09-05T20:43:52.364Z,9.47
2018-09-05T20:46:08.444Z,9.73
2018-09-05T20:48:23.768Z,9.80
2018-09-05T20:52:45.448Z,9.30
2018-09-05T20:54:54.859Z,9.47
2018-09-05T20:57:03.242Z,9.77
2018-09-05T20:59:11.420Z,10.73
2018-09-05T21:01:21.403Z,10.40
2018-09-05T21:03:30.605Z,10.50
2018-09-05T21:05:41.381Z,9.97
2018-09-05T21:07:53.239Z,11.10
2018-09-05T21:10:00.247Z,10.07
2018-09-05T21:12:12.601Z,10.23
2018-09-05T21:14:19.736Z,10.30
2018-09-05T21:16:31.244Z,9.83
2018-09-05T21:20:52.994Z,10.13
2018-09-05T21:23:02.267Z,10.17
2018-09-05T21:25:11.962Z,10.90
2018-09-05T21:27:24.373Z,10.90
2018-09-05T21:29:33.525Z,10.33
2018-09-05T21:31:45.262Z,9.47
2018-09-05T21:33:57.434Z,9.77
2018-09-05T21:36:21.283Z,10.50
2018-09-05T21:38:38.209Z,9.80
2018-09-05T21:40:45.363Z,10.40
2018-09-05T21:42:59.593Z,9.83
2018-09-05T21:45:27.080Z,9.27
2018-09-05T21:47:38.568Z,9.93
2018-09-05T21:49:47.033Z,10.03
2018-09-05T21:51:57.150Z,10.40
2018-09-05T21:54:02.839Z,10.47
2018-09-05T21:56:11.366Z,10.40
2018-09-05T21:58:18.052Z,10.87
2018-09-05T22:00:46.712Z,11.27
2018-09-05T22:02:57.676Z,10.40
2018-09-05T22:05:04.893Z,9.90
2018-09-05T22:07:11.883Z,10.40
2018-09-05T22:09:19.251Z,11.33
2018-09-05T22:11:29.054Z,10.57
2018-09-05T22:13:34.332Z,10.07
2018-09-05T22:15:47.539Z,10.57
2018-09-05T22:17:56.581Z,9.87
2018-09-05T22:20:02.010Z,10.33
2018-09-05T22:22:08.867Z,10.77
2018-09-05T22:24:16.907Z,10.57
2018-09-05T22:26:28.084Z,10.67
2018-09-05T22:28:34.257Z,10.03
2018-09-05T22:30:48.771Z,11.50
2018-09-05T22:32:58.011Z,11.30
2018-09-05T22:35:07.868Z,11.97
2018-09-05T22:37:18.763Z,12.27
2018-09-05T22:39:24.709Z,11.33
2018-09-05T22:41:29.301Z,11.10
2018-09-05T22:43:45.399Z,10.80
2018-09-05T22:46:00.523Z,10.47
2018-09-05T22:48:48.135Z,10.90
2018-09-05T22:53:09.495Z,11.07
2018-09-05T22:55:34.747Z,10.67
2018-09-05T22:59:57.835Z,10.87
2018-09-05T23:02:15.837Z,10.50
2018-09-05T23:04:29.682Z,11.07
2018-09-05T23:08:43.610Z,10.83
2018-09-05T23:10:59.504Z,10.67
2018-09-05T23:13:14.940Z,10.30
2018-09-05T23:15:37.416Z,10.83
2018-09-05T23:18:51.235Z,10.50
2018-09-05T23:21:21.083Z,10.97
2018-09-05T23:23:38.830Z,10.70
2018-09-05T23:25:43.309Z,10.20
2018-09-05T23:27:49.238Z,10.37
2018-09-05T23:29:53.719Z,11.00
2018-09-05T23:31:58.330Z,10.60
2018-09-05T23:34:05.194Z,11.67
2018-09-05T23:36:10.281Z,11.43
2018-09-05T23:38:16.333Z,11.33
2018-09-05T23:40:22.655Z,11.63
2018-09-05T23:42:27.842Z,11.37
2018-09-05T23:44:32.483Z,11.10
2018-09-05T23:46:38.004Z,11.23
2018-09-05T23:48:42.683Z,11.27
2018-09-05T23:50:46.613Z,11.23
2018-09-05T23:52:51.187Z,11.50
2018-09-05T23:54:56.683Z,12.10
2018-09-05T23:57:01.972Z,11.97
2018-09-05T23:59:07.589Z,12.20
